Terminal Aerodrome Forecast
Issued by NWS

Home | Current Version | Previous Version | Text Only | Print | Product List | Glossary On
Versions: 1 2 3 4 5 6 7 8 9 10 11 12
309
FTUS45 KTFX 240520
TAFHVR
TAF
KHVR 240520Z 2406/2506 15007KT P6SM FEW110 SCT200
     FM242200 29008KT P6SM SCT070 BKN110 PROB30 2500/2504 VRB15G30KT
      -TSRA BKN070CB=

USA.gov is the U.S. government's official web portal to all federal, state and local government web resources and services.